Terminal Aerodrome Forecast
Issued by NWS

Home | Current Version | Previous Version | Text Only | Print | Product List | Glossary On
Versions: 1 2 3 4 5 6 7 8 9 10 11 12 13 14
850
FTUS46 KSEW 262332
TAFBFI
TAF
KBFI 262332Z 2700/2724 19008KT P6SM BKN045 OVC060
     FM270300 29009KT P6SM VCSH OVC045
     FM270700 16009KT P6SM VCSH OVC025
     FM271200 18008KT P6SM VCSH OVC040
     FM272100 20007G14KT P6SM VCSH BKN040=

USA.gov is the U.S. government's official web portal to all federal, state and local government web resources and services.